createdAt,value
2022-09-14T00:01:40.243Z,19.90
2022-09-14T00:04:12.878Z,19.90
2022-09-14T00:06:41.211Z,19.80
2022-09-14T00:09:17.415Z,19.80
2022-09-14T00:11:44.707Z,19.80
2022-09-14T00:14:12.370Z,19.70
2022-09-14T00:16:42.751Z,19.70
2022-09-14T00:19:23.187Z,19.70
2022-09-14T00:21:54.239Z,19.60
2022-09-14T00:24:22.820Z,19.60
2022-09-14T00:26:50.839Z,19.50
2022-09-14T00:29:18.464Z,19.50
2022-09-14T00:31:45.765Z,19.50
2022-09-14T00:34:16.365Z,19.50
2022-09-14T00:36:47.664Z,19.50
2022-09-14T00:39:16.530Z,19.50
2022-09-14T00:41:47.145Z,19.50
2022-09-14T00:44:14.139Z,19.50
2022-09-14T00:46:48.364Z,19.50
2022-09-14T00:49:23.361Z,19.40
2022-09-14T00:52:24.296Z,19.50
2022-09-14T00:55:04.164Z,19.40
2022-09-14T00:57:40.330Z,19.40
2022-09-14T01:00:11.724Z,19.40
2022-09-14T01:02:40.014Z,19.40
2022-09-14T01:05:11.090Z,19.40
2022-09-14T01:08:00.397Z,19.40
2022-09-14T01:10:59.123Z,19.40
2022-09-14T01:13:48.554Z,19.40
2022-09-14T01:16:28.327Z,19.40
2022-09-14T01:19:10.784Z,19.40
2022-09-14T01:21:42.490Z,19.40
2022-09-14T01:24:23.541Z,19.40
2022-09-14T01:27:29.137Z,19.40
2022-09-14T01:30:09.639Z,19.40
2022-09-14T01:32:51.149Z,19.30
2022-09-14T01:35:41.146Z,19.30
2022-09-14T01:38:35.922Z,19.30
2022-09-14T01:41:09.368Z,19.30
2022-09-14T01:43:54.237Z,19.30
2022-09-14T01:46:30.068Z,19.20
2022-09-14T01:49:23.826Z,19.20
2022-09-14T01:51:58.782Z,19.20
2022-09-14T01:55:01.380Z,19.20
2022-09-14T01:58:04.376Z,19.20
2022-09-14T02:00:32.643Z,19.20
2022-09-14T02:03:11.727Z,19.20
2022-09-14T02:06:10.360Z,19.20
2022-09-14T02:08:38.078Z,19.20
2022-09-14T02:11:05.486Z,19.20
2022-09-14T02:13:33.283Z,19.20
2022-09-14T02:16:00.451Z,19.20
2022-09-14T02:18:28.224Z,19.30
2022-09-14T02:21:27.468Z,19.30
2022-09-14T02:23:55.210Z,19.30
2022-09-14T02:26:24.437Z,19.30
2022-09-14T02:28:56.112Z,19.30
2022-09-14T02:31:44.808Z,19.30
2022-09-14T02:34:23.813Z,19.30
2022-09-14T02:37:08.924Z,19.30
2022-09-14T02:39:56.351Z,19.30
2022-09-14T02:42:41.496Z,19.30
2022-09-14T02:45:39.310Z,19.30
2022-09-14T02:48:27.207Z,19.30
2022-09-14T02:51:08.077Z,19.30
2022-09-14T02:54:11.499Z,19.30
2022-09-14T02:56:38.848Z,19.30
2022-09-14T02:59:06.389Z,19.30
2022-09-14T03:01:34.003Z,19.20
2022-09-14T03:04:01.247Z,19.20
2022-09-14T03:06:28.436Z,19.20
2022-09-14T03:08:55.508Z,19.20
2022-09-14T03:11:22.702Z,19.20
2022-09-14T03:13:49.896Z,19.20
2022-09-14T03:16:18.476Z,19.10
2022-09-14T03:18:45.682Z,19.10
2022-09-14T03:21:16.809Z,19.10
2022-09-14T03:23:55.200Z,19.10
2022-09-14T03:26:25.153Z,19.10
2022-09-14T03:28:58.804Z,19.10
2022-09-14T03:31:27.782Z,19.00
2022-09-14T03:33:58.343Z,19.00
2022-09-14T03:36:29.136Z,19.00
2022-09-14T03:38:59.180Z,19.00
2022-09-14T03:41:26.806Z,18.90
2022-09-14T03:43:54.155Z,18.90
2022-09-14T03:46:24.397Z,18.80
2022-09-14T03:48:52.027Z,18.80
2022-09-14T03:51:19.774Z,18.80
2022-09-14T03:53:47.546Z,18.70
2022-09-14T03:56:19.369Z,18.70
2022-09-14T03:58:48.467Z,18.70
2022-09-14T04:01:19.523Z,18.70
2022-09-14T04:03:47.694Z,18.60
2022-09-14T04:06:16.943Z,18.60
2022-09-14T04:08:46.312Z,18.60
2022-09-14T04:11:21.013Z,18.60
2022-09-14T04:13:49.185Z,18.60
2022-09-14T04:16:18.574Z,18.60
2022-09-14T04:18:45.875Z,18.50
2022-09-14T04:21:20.035Z,18.60
2022-09-14T04:26:35.271Z,18.50
2022-09-14T04:29:02.411Z,18.50
2022-09-14T04:31:29.846Z,18.50
2022-09-14T04:33:57.537Z,18.50
2022-09-14T04:36:31.140Z,18.50
2022-09-14T04:39:01.913Z,18.50
2022-09-14T04:41:31.254Z,18.40
2022-09-14T04:43:59.864Z,18.40
2022-09-14T04:46:35.145Z,18.40
2022-09-14T04:49:02.850Z,18.40
2022-09-14T04:51:32.709Z,18.40
2022-09-14T04:54:01.975Z,18.40
2022-09-14T04:56:33.615Z,18.40
2022-09-14T04:59:04.489Z,18.40
2022-09-14T05:01:37.499Z,18.40
2022-09-14T05:04:06.461Z,18.40
2022-09-14T05:06:38.568Z,18.40
2022-09-14T05:09:13.275Z,18.40
2022-09-14T05:11:41.658Z,18.30
2022-09-14T05:14:13.323Z,18.40
2022-09-14T05:16:43.103Z,18.40
2022-09-14T05:19:15.439Z,18.30
2022-09-14T05:21:42.694Z,18.30
2022-09-14T05:24:17.833Z,18.40
2022-09-14T05:26:46.175Z,18.30
2022-09-14T05:29:18.941Z,18.30
2022-09-14T05:31:47.383Z,18.40
2022-09-14T05:34:15.115Z,18.40
2022-09-14T05:36:42.546Z,18.40
2022-09-14T05:39:10.605Z,18.40
2022-09-14T05:41:38.283Z,18.30
2022-09-14T05:44:06.512Z,18.30
2022-09-14T05:46:34.517Z,18.30
2022-09-14T05:49:01.830Z,18.30
2022-09-14T05:51:29.808Z,18.30
2022-09-14T05:53:59.026Z,18.30
2022-09-14T05:56:29.857Z,18.30
2022-09-14T05:58:58.382Z,18.30
2022-09-14T06:01:29.602Z,18.30
2022-09-14T06:04:00.577Z,18.30
2022-09-14T06:06:28.720Z,18.20
2022-09-14T06:08:56.624Z,18.20
2022-09-14T06:11:29.990Z,18.20
2022-09-14T06:13:57.884Z,18.20
2022-09-14T06:16:28.084Z,18.20
2022-09-14T06:19:51.471Z,18.20
2022-09-14T06:22:18.598Z,18.20
2022-09-14T06:24:45.846Z,18.20
2022-09-14T06:27:13.329Z,18.20
2022-09-14T06:29:40.499Z,18.20
2022-09-14T06:32:08.081Z,18.10
2022-09-14T06:34:37.150Z,18.10
2022-09-14T06:37:07.120Z,18.10
2022-09-14T06:39:34.373Z,18.10
2022-09-14T06:42:21.553Z,18.10
2022-09-14T06:44:48.755Z,18.10
2022-09-14T06:47:15.896Z,18.10
2022-09-14T06:49:43.098Z,18.10
2022-09-14T06:52:10.360Z,18.10
2022-09-14T06:54:37.464Z,18.10
2022-09-14T06:57:06.634Z,18.10
2022-09-14T06:59:33.878Z,18.10
2022-09-14T07:02:01.048Z,18.10
2022-09-14T07:04:28.267Z,18.10
2022-09-14T07:06:55.330Z,18.00
2022-09-14T07:09:22.739Z,18.00
2022-09-14T07:11:49.986Z,18.00
2022-09-14T07:14:17.485Z,18.00
2022-09-14T07:16:44.718Z,18.00
2022-09-14T07:19:14.895Z,18.00
2022-09-14T07:21:43.065Z,18.00
2022-09-14T07:24:12.975Z,18.00
2022-09-14T07:26:42.641Z,18.00
2022-09-14T07:29:20.195Z,18.00
2022-09-14T07:31:51.344Z,17.90
2022-09-14T07:34:19.053Z,17.90
2022-09-14T07:36:46.955Z,18.00
2022-09-14T07:39:19.724Z,17.90
2022-09-14T07:41:46.940Z,17.90
2022-09-14T07:44:17.474Z,17.90
2022-09-14T07:46:46.579Z,17.90
2022-09-14T07:49:15.999Z,17.90
2022-09-14T07:51:43.387Z,17.90
2022-09-14T07:54:15.241Z,18.00
2022-09-14T07:56:43.629Z,18.00
2022-09-14T07:59:48.338Z,18.00
2022-09-14T08:02:15.410Z,18.00
2022-09-14T08:04:43.574Z,18.00
2022-09-14T08:07:10.905Z,18.00
2022-09-14T08:09:39.739Z,18.00
2022-09-14T08:12:06.989Z,18.00
2022-09-14T08:14:34.285Z,18.00
2022-09-14T08:17:01.528Z,18.00
2022-09-14T08:19:28.957Z,18.00
2022-09-14T08:21:56.128Z,18.00
2022-09-14T08:24:23.346Z,18.10
2022-09-14T08:26:50.768Z,18.10
2022-09-14T08:29:20.074Z,18.10
2022-09-14T08:31:48.762Z,18.10
2022-09-14T08:34:17.526Z,18.10
2022-09-14T08:36:46.857Z,18.10
2022-09-14T08:39:16.194Z,18.20
2022-09-14T08:41:54.197Z,18.10
2022-09-14T08:45:09.437Z,18.10
2022-09-14T08:47:39.113Z,18.20
2022-09-14T08:50:22.056Z,18.20
2022-09-14T08:52:55.237Z,18.30
2022-09-14T08:55:50.751Z,18.30
2022-09-14T08:58:47.518Z,18.30
2022-09-14T09:01:37.148Z,18.30
2022-09-14T09:04:57.350Z,18.30
2022-09-14T09:07:51.121Z,18.30
2022-09-14T09:10:19.525Z,18.20
2022-09-14T09:12:54.004Z,18.20
2022-09-14T09:15:37.232Z,18.20
2022-09-14T09:18:16.280Z,18.20
2022-09-14T09:20:55.049Z,18.20
2022-09-14T09:23:27.574Z,18.10
2022-09-14T09:26:30.592Z,18.20
2022-09-14T09:29:01.509Z,18.20
2022-09-14T09:31:39.806Z,18.20
2022-09-14T09:34:16.431Z,18.20
2022-09-14T09:36:49.034Z,18.20
2022-09-14T09:39:17.716Z,18.20
2022-09-14T09:42:16.035Z,18.20
2022-09-14T09:45:03.144Z,18.20
2022-09-14T09:47:33.293Z,18.20
2022-09-14T09:50:06.126Z,18.30
2022-09-14T09:52:34.870Z,18.30
2022-09-14T09:55:08.876Z,18.30
2022-09-14T09:57:37.470Z,18.40
2022-09-14T10:00:26.071Z,18.40
2022-09-14T10:02:55.142Z,18.40
2022-09-14T10:05:32.761Z,18.50
2022-09-14T10:08:02.795Z,18.50
2022-09-14T10:10:36.003Z,18.50
2022-09-14T10:13:07.204Z,18.60
2022-09-14T10:15:38.812Z,18.60
2022-09-14T10:18:12.140Z,18.70
2022-09-14T10:20:59.486Z,18.70
2022-09-14T10:23:31.034Z,18.80
2022-09-14T10:26:13.550Z,18.80
2022-09-14T10:29:21.227Z,18.80
2022-09-14T10:31:50.425Z,18.80
2022-09-14T10:34:23.844Z,18.80
2022-09-14T10:37:12.519Z,18.80
2022-09-14T10:40:04.551Z,18.80
2022-09-14T10:43:03.962Z,18.70
2022-09-14T10:45:41.330Z,18.70
2022-09-14T10:48:31.768Z,18.70
2022-09-14T10:51:22.561Z,18.70
2022-09-14T10:54:36.146Z,18.70
2022-09-14T10:57:37.091Z,18.70
2022-09-14T11:00:19.134Z,18.70
2022-09-14T11:03:36.757Z,18.80
2022-09-14T11:06:30.705Z,18.80
2022-09-14T11:09:20.603Z,18.80
2022-09-14T11:12:12.425Z,18.80
2022-09-14T11:14:57.425Z,18.80
2022-09-14T11:17:34.330Z,18.80
2022-09-14T11:20:33.487Z,18.80
2022-09-14T11:23:20.973Z,18.90
2022-09-14T11:26:17.097Z,18.90
2022-09-14T11:28:58.009Z,18.90
2022-09-14T11:32:10.109Z,18.90
2022-09-14T11:35:11.816Z,18.90
2022-09-14T11:37:55.751Z,18.90
2022-09-14T11:40:49.266Z,18.90
2022-09-14T11:43:50.580Z,18.80
2022-09-14T11:46:31.924Z,18.80
2022-09-14T11:49:19.029Z,18.80
2022-09-14T11:52:05.279Z,18.70
2022-09-14T11:54:32.493Z,18.70
2022-09-14T11:57:03.613Z,18.70
2022-09-14T11:59:39.594Z,18.60
2022-09-14T12:02:30.359Z,18.60
2022-09-14T12:05:06.694Z,18.50
2022-09-14T12:08:03.876Z,18.50
2022-09-14T12:10:31.156Z,18.50
2022-09-14T12:13:07.369Z,18.50
2022-09-14T12:15:41.226Z,18.50
2022-09-14T12:18:08.237Z,18.50
2022-09-14T12:20:43.551Z,18.50
2022-09-14T12:23:30.751Z,18.50
2022-09-14T12:26:18.915Z,18.50
2022-09-14T12:28:53.392Z,18.50
2022-09-14T12:31:47.622Z,18.50
2022-09-14T12:34:27.193Z,18.50
2022-09-14T12:36:54.905Z,18.60
2022-09-14T12:39:29.301Z,18.60
2022-09-14T12:41:58.899Z,18.60
2022-09-14T12:44:32.051Z,18.60
2022-09-14T12:47:25.283Z,18.70
2022-09-14T12:50:20.999Z,18.70
2022-09-14T12:53:24.165Z,18.70
2022-09-14T12:56:04.249Z,18.70
2022-09-14T12:58:56.750Z,18.80
2022-09-14T13:01:38.190Z,18.80
2022-09-14T13:04:32.759Z,18.90
2022-09-14T13:07:06.050Z,18.90
2022-09-14T13:09:34.464Z,19.00
2022-09-14T13:12:06.810Z,19.00
2022-09-14T13:14:58.436Z,19.00
2022-09-14T13:17:25.792Z,19.10
2022-09-14T13:20:05.542Z,19.20
2022-09-14T13:22:33.988Z,19.30
2022-09-14T13:25:01.665Z,19.30
2022-09-14T13:27:38.606Z,19.40
2022-09-14T13:30:26.481Z,19.40
2022-09-14T13:32:57.852Z,19.40
2022-09-14T13:35:55.488Z,19.40
2022-09-14T13:38:29.275Z,19.50
2022-09-14T13:41:06.991Z,19.50
2022-09-14T13:43:35.489Z,19.50
2022-09-14T13:46:07.634Z,19.50
2022-09-14T13:48:40.169Z,19.50
2022-09-14T13:51:09.082Z,19.50
2022-09-14T13:53:58.443Z,19.50
2022-09-14T13:56:33.749Z,19.60
2022-09-14T13:59:12.457Z,19.60
2022-09-14T14:01:54.218Z,19.60
2022-09-14T14:04:36.599Z,19.70
2022-09-14T14:07:16.491Z,19.80
2022-09-14T14:09:51.373Z,19.80
2022-09-14T14:12:37.754Z,19.90
2022-09-14T14:15:27.227Z,20.00
2022-09-14T14:17:55.272Z,20.10
2022-09-14T14:20:38.414Z,20.20
2022-09-14T14:23:11.510Z,20.30
2022-09-14T14:25:54.252Z,20.40
2022-09-14T14:28:41.665Z,20.50
2022-09-14T14:31:21.293Z,20.50
2022-09-14T14:33:51.923Z,20.60
2022-09-14T14:36:19.775Z,20.70
2022-09-14T14:38:48.320Z,20.70
2022-09-14T14:41:21.251Z,20.70
2022-09-14T14:43:50.946Z,20.70
2022-09-14T14:46:18.912Z,20.70
2022-09-14T14:48:46.052Z,20.60
2022-09-14T14:51:15.308Z,20.60
2022-09-14T14:53:43.233Z,20.60
2022-09-14T14:56:13.890Z,20.50
2022-09-14T14:58:46.059Z,20.40
2022-09-14T15:01:13.839Z,20.40
2022-09-14T15:03:41.097Z,20.30
2022-09-14T15:06:26.425Z,20.30
2022-09-14T15:08:57.526Z,20.20
2022-09-14T15:11:27.203Z,20.20
2022-09-14T15:13:54.460Z,20.10
2022-09-14T15:16:21.870Z,20.10
2022-09-14T15:18:49.094Z,20.00
2022-09-14T15:21:16.249Z,20.00
2022-09-14T15:23:43.353Z,19.90
2022-09-14T15:26:10.591Z,19.90
2022-09-14T15:28:38.810Z,19.80
2022-09-14T15:31:07.968Z,19.80
2022-09-14T15:33:35.481Z,19.70
2022-09-14T15:36:03.542Z,19.70
2022-09-14T15:38:30.937Z,19.60
2022-09-14T15:40:58.061Z,19.60
2022-09-14T15:43:25.351Z,19.60
2022-09-14T15:45:52.609Z,19.60
2022-09-14T15:48:20.166Z,19.50
2022-09-14T15:50:48.889Z,19.40
2022-09-14T15:53:18.513Z,19.40
2022-09-14T15:55:46.306Z,19.40
2022-09-14T15:58:13.738Z,19.30
2022-09-14T16:00:45.384Z,19.30
2022-09-14T16:03:13.099Z,19.30
2022-09-14T16:05:40.825Z,19.20
2022-09-14T16:08:08.346Z,19.20
2022-09-14T16:10:35.573Z,19.20
2022-09-14T16:13:02.696Z,19.20
2022-09-14T16:15:29.862Z,19.20
2022-09-14T16:17:57.075Z,19.20
2022-09-14T16:20:24.194Z,19.20
2022-09-14T16:22:51.911Z,19.20
2022-09-14T16:25:19.238Z,19.20
2022-09-14T16:27:46.412Z,19.20
2022-09-14T16:30:13.593Z,19.20
2022-09-14T16:32:40.788Z,19.30
2022-09-14T16:35:08.522Z,19.30
2022-09-14T16:37:35.903Z,19.30
2022-09-14T16:40:59.912Z,19.30
2022-09-14T16:43:28.086Z,19.30
2022-09-14T16:46:22.003Z,19.30
2022-09-14T16:48:52.649Z,19.30
2022-09-14T16:51:23.946Z,19.40
2022-09-14T16:53:53.080Z,19.40
2022-09-14T16:56:27.705Z,19.40
2022-09-14T16:58:56.490Z,19.40
2022-09-14T17:01:28.885Z,19.40
2022-09-14T17:04:01.451Z,19.40
2022-09-14T17:06:32.172Z,19.40
2022-09-14T17:09:05.399Z,19.50
2022-09-14T17:11:35.438Z,19.50
2022-09-14T17:14:02.926Z,19.50
2022-09-14T17:16:32.823Z,19.50
2022-09-14T17:19:03.188Z,19.50
2022-09-14T17:21:35.291Z,19.50
2022-09-14T17:24:04.607Z,19.40
2022-09-14T17:26:33.030Z,19.40
2022-09-14T17:29:01.580Z,19.40
2022-09-14T17:31:36.960Z,19.30
2022-09-14T17:34:06.921Z,19.30
2022-09-14T17:36:34.652Z,19.20
2022-09-14T17:39:09.172Z,19.20
2022-09-14T17:41:39.284Z,19.10
2022-09-14T17:44:08.259Z,19.10
2022-09-14T17:46:39.730Z,19.00
2022-09-14T17:49:13.707Z,19.00
2022-09-14T17:51:41.464Z,18.90
2022-09-14T17:54:09.361Z,18.80
2022-09-14T17:56:37.496Z,18.80
2022-09-14T17:59:13.083Z,18.70
2022-09-14T18:01:41.209Z,18.70
2022-09-14T18:04:12.567Z,18.70
2022-09-14T18:06:46.568Z,18.70
2022-09-14T18:09:24.512Z,18.70
2022-09-14T18:11:54.706Z,18.60
2022-09-14T18:14:40.700Z,18.60
2022-09-14T18:17:07.905Z,18.60
2022-09-14T18:19:34.982Z,18.60
2022-09-14T18:22:02.302Z,18.50
2022-09-14T18:24:29.965Z,18.50
2022-09-14T18:26:58.034Z,18.50
2022-09-14T18:29:25.887Z,18.50
2022-09-14T18:31:54.569Z,18.40
2022-09-14T18:34:23.200Z,18.40
2022-09-14T18:36:52.204Z,18.40
2022-09-14T18:39:19.380Z,18.40
2022-09-14T18:42:05.603Z,18.40
2022-09-14T18:44:32.886Z,18.40
2022-09-14T18:47:00.556Z,18.40
2022-09-14T18:49:27.882Z,18.30
2022-09-14T18:51:55.019Z,18.30
2022-09-14T18:54:27.283Z,18.30
2022-09-14T18:56:54.859Z,18.30
2022-09-14T18:59:22.056Z,18.30
2022-09-14T19:01:50.240Z,18.30
2022-09-14T19:04:17.524Z,18.20
2022-09-14T19:06:44.815Z,18.30
2022-09-14T19:09:12.091Z,18.30
2022-09-14T19:11:39.386Z,18.20
2022-09-14T19:14:10.568Z,18.20
2022-09-14T19:16:42.004Z,18.20
2022-09-14T19:19:14.792Z,18.10
2022-09-14T19:21:42.364Z,18.10
2022-09-14T19:24:14.644Z,18.10
2022-09-14T19:26:46.544Z,18.10
2022-09-14T19:29:17.172Z,18.10
2022-09-14T19:31:44.834Z,18.00
2022-09-14T19:34:12.404Z,18.00
2022-09-14T19:36:39.996Z,17.90
2022-09-14T19:39:07.179Z,17.90
2022-09-14T19:41:35.299Z,17.90
2022-09-14T19:44:04.039Z,17.80
2022-09-14T19:46:34.048Z,17.80
2022-09-14T19:49:01.202Z,17.80
2022-09-14T19:51:30.971Z,17.70
2022-09-14T19:54:00.593Z,17.70
2022-09-14T19:56:31.163Z,17.60
2022-09-14T19:59:02.247Z,17.60
2022-09-14T20:01:32.076Z,17.50
2022-09-14T20:03:59.553Z,17.50
2022-09-14T20:06:36.868Z,17.50
2022-09-14T20:09:15.068Z,17.50
2022-09-14T20:11:44.678Z,17.40
2022-09-14T20:14:16.269Z,17.40
2022-09-14T20:16:50.729Z,17.30
2022-09-14T20:19:21.884Z,17.30
2022-09-14T20:21:52.098Z,17.30
2022-09-14T20:24:31.690Z,17.30
2022-09-14T20:27:03.035Z,17.20
2022-09-14T20:29:34.189Z,17.20
2022-09-14T20:32:04.290Z,17.10
2022-09-14T20:34:31.772Z,17.10
2022-09-14T20:37:01.727Z,17.10
2022-09-14T20:39:29.660Z,17.10
2022-09-14T20:41:56.750Z,17.00
2022-09-14T20:44:24.095Z,17.00
2022-09-14T20:46:52.083Z,17.00
2022-09-14T20:49:24.008Z,17.00
2022-09-14T20:51:52.855Z,16.90
2022-09-14T20:54:20.379Z,16.90
2022-09-14T20:56:47.663Z,16.90
2022-09-14T20:59:17.831Z,16.90
2022-09-14T21:01:47.852Z,16.80
2022-09-14T21:04:20.098Z,16.80
2022-09-14T21:06:52.691Z,16.80
2022-09-14T21:09:24.386Z,16.80
2022-09-14T21:11:52.537Z,16.70
2022-09-14T21:14:21.150Z,16.70
2022-09-14T21:16:53.357Z,16.70
2022-09-14T21:19:24.723Z,16.60
2022-09-14T21:21:52.203Z,16.60
2022-09-14T21:24:23.008Z,16.60
2022-09-14T21:26:50.395Z,16.60
2022-09-14T21:29:23.872Z,16.60
2022-09-14T21:31:52.002Z,16.60
2022-09-14T21:34:19.410Z,16.60
2022-09-14T21:36:49.754Z,16.50
2022-09-14T21:39:23.090Z,16.50
2022-09-14T21:41:58.017Z,16.50
2022-09-14T21:44:37.813Z,16.60
2022-09-14T21:47:05.734Z,16.50
2022-09-14T21:49:33.082Z,16.50
2022-09-14T21:52:00.427Z,16.50
2022-09-14T21:54:28.063Z,16.50
2022-09-14T21:56:55.484Z,16.50
2022-09-14T21:59:23.988Z,16.50
2022-09-14T22:01:51.495Z,16.50
2022-09-14T22:04:23.089Z,16.50
2022-09-14T22:06:54.262Z,16.50
2022-09-14T22:09:25.197Z,16.50
2022-09-14T22:11:53.482Z,16.50
2022-09-14T22:14:25.231Z,16.40
2022-09-14T22:16:52.721Z,16.40
2022-09-14T22:19:22.495Z,16.40
2022-09-14T22:21:51.094Z,16.40
2022-09-14T22:24:32.314Z,16.40
2022-09-14T22:27:02.691Z,16.40
2022-09-14T22:29:29.979Z,16.30
2022-09-14T22:31:57.270Z,16.30
2022-09-14T22:34:24.710Z,16.30
2022-09-14T22:36:51.915Z,16.20
2022-09-14T22:39:19.054Z,16.20
2022-09-14T22:41:46.196Z,16.20
2022-09-14T22:44:13.616Z,16.20
2022-09-14T22:46:41.041Z,16.10
2022-09-14T22:49:08.237Z,16.10
2022-09-14T22:51:35.309Z,16.10
2022-09-14T22:54:02.427Z,16.10
2022-09-14T22:56:35.514Z,16.10
2022-09-14T22:59:07.849Z,16.10
2022-09-14T23:01:40.924Z,16.10
2022-09-14T23:04:12.951Z,16.10
2022-09-14T23:06:44.412Z,16.20
2022-09-14T23:09:18.907Z,16.20
2022-09-14T23:11:49.518Z,16.20
2022-09-14T23:14:17.697Z,16.20
2022-09-14T23:16:45.739Z,16.30
2022-09-14T23:19:17.527Z,16.30
2022-09-14T23:21:45.708Z,16.30
2022-09-14T23:24:13.246Z,16.30
2022-09-14T23:26:43.322Z,16.30
2022-09-14T23:29:16.683Z,16.30
2022-09-14T23:31:44.585Z,16.30
2022-09-14T23:34:12.048Z,16.30
2022-09-14T23:36:39.134Z,16.30
2022-09-14T23:39:06.663Z,16.30
2022-09-14T23:41:33.951Z,16.30
2022-09-14T23:44:01.257Z,16.30
2022-09-14T23:46:28.508Z,16.30
2022-09-14T23:48:55.593Z,16.30
2022-09-14T23:51:23.550Z,16.40
2022-09-14T23:53:50.660Z,16.30
2022-09-14T23:56:18.126Z,16.40
2022-09-14T23:58:45.611Z,16.40
